createdAt,value
2018-09-12T00:00:58.286Z,17.40
2018-09-12T00:03:32.391Z,17.40
2018-09-12T00:06:06.450Z,17.40
2018-09-12T00:08:40.971Z,17.40
2018-09-12T00:11:15.880Z,17.30
2018-09-12T00:13:50.356Z,17.30
2018-09-12T00:16:25.685Z,17.30
2018-09-12T00:18:59.460Z,17.20
2018-09-12T00:21:34.198Z,17.20
2018-09-12T00:24:08.536Z,17.20
2018-09-12T00:26:42.764Z,17.20
2018-09-12T00:29:17.162Z,17.10
2018-09-12T00:31:51.014Z,17.10
2018-09-12T00:34:25.467Z,17.10
2018-09-12T00:37:00.155Z,17.10
2018-09-12T00:39:34.847Z,17.10
2018-09-12T00:42:09.663Z,17.10
2018-09-12T00:44:43.962Z,17.10
2018-09-12T00:47:18.094Z,17.10
2018-09-12T00:49:53.105Z,17.10
2018-09-12T00:52:27.104Z,17.20
2018-09-12T00:55:01.299Z,17.20
2018-09-12T00:57:35.296Z,17.20
2018-09-12T01:00:09.331Z,17.30
2018-09-12T01:02:44.056Z,17.30
2018-09-12T01:05:18.355Z,17.40
2018-09-12T01:07:53.709Z,17.40
2018-09-12T01:10:28.009Z,17.40
2018-09-12T01:13:02.451Z,17.40
2018-09-12T01:15:36.978Z,17.40
2018-09-12T01:18:16.721Z,17.40
2018-09-12T01:20:51.535Z,17.40
2018-09-12T01:23:26.230Z,17.30
2018-09-12T01:26:00.322Z,17.30
2018-09-12T01:28:34.741Z,17.40
2018-09-12T01:31:09.671Z,17.40
2018-09-12T01:33:43.594Z,17.40
2018-09-12T01:36:17.712Z,17.40
2018-09-12T01:38:51.746Z,17.40
2018-09-12T01:41:26.476Z,17.40
2018-09-12T01:44:01.607Z,17.40
2018-09-12T01:46:36.371Z,17.40
2018-09-12T01:49:14.740Z,17.30
2018-09-12T01:51:49.805Z,17.30
2018-09-12T01:54:23.941Z,17.30
2018-09-12T01:56:57.989Z,17.30
2018-09-12T01:59:32.496Z,17.20
2018-09-12T02:02:06.805Z,17.20
2018-09-12T02:04:41.424Z,17.20
2018-09-12T02:07:15.405Z,17.20
2018-09-12T02:09:49.394Z,17.10
2018-09-12T02:12:23.561Z,17.00
2018-09-12T02:14:58.664Z,17.00
2018-09-12T02:17:32.783Z,17.00
2018-09-12T02:20:07.847Z,16.90
2018-09-12T02:22:41.869Z,16.90
2018-09-12T02:25:16.065Z,16.80
2018-09-12T02:27:50.258Z,16.80
2018-09-12T02:30:24.516Z,16.80
2018-09-12T02:32:59.308Z,16.70
2018-09-12T02:35:35.035Z,16.70
2018-09-12T02:38:09.398Z,16.60
2018-09-12T02:40:43.548Z,16.60
2018-09-12T02:43:18.003Z,16.60
2018-09-12T02:45:51.971Z,16.60
2018-09-12T02:48:26.804Z,16.60
2018-09-12T02:51:01.823Z,16.60
2018-09-12T02:53:36.074Z,16.60
2018-09-12T02:56:10.256Z,16.50
2018-09-12T02:58:44.425Z,16.50
2018-09-12T03:01:19.217Z,16.50
2018-09-12T03:03:53.346Z,16.50
2018-09-12T03:06:27.414Z,16.50
2018-09-12T03:09:02.530Z,16.50
2018-09-12T03:11:37.624Z,16.40
2018-09-12T03:14:13.590Z,16.40
2018-09-12T03:16:47.640Z,16.40
2018-09-12T03:19:21.865Z,16.40
2018-09-12T03:21:55.936Z,16.30
2018-09-12T03:24:30.165Z,16.30
2018-09-12T03:27:04.282Z,16.30
2018-09-12T03:29:38.952Z,16.30
2018-09-12T03:32:13.472Z,16.20
2018-09-12T03:34:47.993Z,16.20
2018-09-12T03:37:22.111Z,16.20
2018-09-12T03:39:56.685Z,16.20
2018-09-12T03:42:31.621Z,16.20
2018-09-12T03:45:06.717Z,16.30
2018-09-12T03:47:40.570Z,16.30
2018-09-12T03:50:14.981Z,16.20
2018-09-12T03:52:49.097Z,16.20
2018-09-12T03:55:24.006Z,16.20
2018-09-12T03:57:58.952Z,16.20
2018-09-12T04:00:33.250Z,16.20
2018-09-12T04:03:07.400Z,16.20
2018-09-12T04:05:41.735Z,16.20
2018-09-12T04:08:15.885Z,16.20
2018-09-12T04:10:49.880Z,16.20
2018-09-12T04:13:24.672Z,16.20
2018-09-12T04:15:58.837Z,16.20
2018-09-12T04:18:32.992Z,16.20
2018-09-12T04:21:07.224Z,16.20
2018-09-12T04:23:41.385Z,16.20
2018-09-12T04:26:15.527Z,16.10
2018-09-12T04:28:49.305Z,16.10
2018-09-12T04:31:23.452Z,16.00
2018-09-12T04:33:58.212Z,16.10
2018-09-12T04:36:33.242Z,16.10
2018-09-12T04:39:09.231Z,16.00
2018-09-12T04:41:42.984Z,16.10
2018-09-12T04:44:16.825Z,16.00
2018-09-12T04:46:50.934Z,16.00
2018-09-12T04:49:25.019Z,16.00
2018-09-12T04:51:59.231Z,16.00
2018-09-12T04:54:33.310Z,15.90
2018-09-12T04:57:08.398Z,15.90
2018-09-12T04:59:42.604Z,16.00
2018-09-12T05:02:16.505Z,15.90
2018-09-12T05:04:50.719Z,15.90
2018-09-12T05:07:25.026Z,16.00
2018-09-12T05:09:58.812Z,15.90
2018-09-12T05:12:33.229Z,16.00
2018-09-12T05:15:07.684Z,16.00
2018-09-12T05:17:43.249Z,16.10
2018-09-12T05:20:17.289Z,16.10
2018-09-12T05:22:51.370Z,16.10
2018-09-12T05:25:25.359Z,16.20
2018-09-12T05:27:59.615Z,16.20
2018-09-12T05:30:34.139Z,16.30
2018-09-12T05:33:08.328Z,16.40
2018-09-12T05:35:43.938Z,16.50
2018-09-12T05:38:17.959Z,16.60
2018-09-12T05:40:52.875Z,16.60
2018-09-12T05:43:27.429Z,16.70
2018-09-12T05:46:01.572Z,16.80
2018-09-12T05:48:35.495Z,17.00
2018-09-12T05:51:09.900Z,17.10
2018-09-12T05:53:43.980Z,17.30
2018-09-12T05:56:18.959Z,17.50
2018-09-12T05:58:54.062Z,17.60
2018-09-12T06:01:28.947Z,17.70
2018-09-12T06:04:03.239Z,17.80
2018-09-12T06:06:38.722Z,17.90
2018-09-12T06:09:12.610Z,18.00
2018-09-12T06:11:48.087Z,18.10
2018-09-12T06:14:22.439Z,18.20
2018-09-12T06:16:57.384Z,18.30
2018-09-12T06:19:31.574Z,18.40
2018-09-12T06:22:05.570Z,18.50
2018-09-12T06:24:40.711Z,18.60
2018-09-12T06:27:14.771Z,18.70
2018-09-12T06:29:49.569Z,18.80
2018-09-12T06:32:23.845Z,18.90
2018-09-12T06:34:58.032Z,19.00
2018-09-12T06:37:31.795Z,19.10
2018-09-12T06:40:06.560Z,19.20
2018-09-12T06:42:40.961Z,19.30
2018-09-12T06:45:16.355Z,19.50
2018-09-12T06:47:50.280Z,19.60
2018-09-12T06:50:24.270Z,19.80
2018-09-12T06:52:58.655Z,19.90
2018-09-12T06:55:32.830Z,20.00
2018-09-12T06:58:06.759Z,20.10
2018-09-12T07:00:41.459Z,20.20
2018-09-12T07:03:15.896Z,20.30
2018-09-12T07:05:50.742Z,20.30
2018-09-12T07:08:24.971Z,20.40
2018-09-12T07:10:59.040Z,20.50
2018-09-12T07:13:33.214Z,20.50
2018-09-12T07:16:08.176Z,20.60
2018-09-12T07:18:43.261Z,20.70
2018-09-12T07:21:17.590Z,20.80
2018-09-12T07:23:51.633Z,20.70
2018-09-12T07:26:25.588Z,20.70
2018-09-12T07:28:59.621Z,20.70
2018-09-12T07:31:33.709Z,20.70
2018-09-12T07:34:08.025Z,20.70
2018-09-12T07:36:43.177Z,20.80
2018-09-12T07:39:17.336Z,20.80
2018-09-12T07:41:52.070Z,20.70
2018-09-12T07:44:26.350Z,20.80
2018-09-12T07:47:00.230Z,20.80
2018-09-12T07:49:34.358Z,20.80
2018-09-12T07:52:08.445Z,20.90
2018-09-12T07:54:42.851Z,20.90
2018-09-12T07:57:17.210Z,20.90
2018-09-12T07:59:51.303Z,20.90
2018-09-12T08:02:25.741Z,21.00
2018-09-12T08:05:00.397Z,21.00
2018-09-12T08:07:34.692Z,21.10
2018-09-12T08:10:08.820Z,21.10
2018-09-12T08:12:42.983Z,21.00
2018-09-12T08:15:17.006Z,21.00
2018-09-12T08:17:51.657Z,21.10
2018-09-12T08:20:25.855Z,21.10
2018-09-12T08:23:00.240Z,21.20
2018-09-12T08:25:35.305Z,21.30
2018-09-12T08:28:10.081Z,21.30
2018-09-12T08:30:44.796Z,21.40
2018-09-12T08:33:18.981Z,21.50
2018-09-12T08:35:53.022Z,21.60
2018-09-12T08:38:27.484Z,21.70
2018-09-12T08:41:02.174Z,21.90
2018-09-12T08:43:36.665Z,21.80
2018-09-12T08:46:10.849Z,21.80
2018-09-12T08:48:45.680Z,21.90
2018-09-12T08:51:19.706Z,21.90
2018-09-12T08:53:53.748Z,22.00
2018-09-12T08:56:28.031Z,22.10
2018-09-12T08:59:02.600Z,22.20
2018-09-12T09:01:36.689Z,22.30
2018-09-12T09:04:11.215Z,22.40
2018-09-12T09:06:45.054Z,22.50
2018-09-12T09:09:19.595Z,22.50
2018-09-12T09:11:53.947Z,22.40
2018-09-12T09:14:28.571Z,22.40
2018-09-12T09:17:03.844Z,22.40
2018-09-12T09:19:37.948Z,22.60
2018-09-12T09:22:12.200Z,22.70
2018-09-12T09:24:46.480Z,22.70
2018-09-12T09:27:21.216Z,22.70
2018-09-12T09:29:55.281Z,22.90
2018-09-12T09:32:30.550Z,23.00
2018-09-12T09:35:06.110Z,22.90
2018-09-12T09:37:40.488Z,23.00
2018-09-12T09:40:15.216Z,23.10
2018-09-12T09:42:49.397Z,23.20
2018-09-12T09:45:23.483Z,23.20
2018-09-12T09:47:57.857Z,23.20
2018-09-12T09:50:32.677Z,23.30
2018-09-12T09:53:07.035Z,23.30
2018-09-12T09:55:41.803Z,23.30
2018-09-12T09:58:16.005Z,23.30
2018-09-12T10:00:55.624Z,23.30
2018-09-12T10:03:35.881Z,23.30
2018-09-12T10:06:16.071Z,23.40
2018-09-12T10:08:55.671Z,23.40
2018-09-12T10:11:30.503Z,23.40
2018-09-12T10:14:05.241Z,23.50
2018-09-12T10:16:39.285Z,23.60
2018-09-12T10:19:13.311Z,23.60
2018-09-12T10:21:47.210Z,23.60
2018-09-12T10:24:28.532Z,23.60
2018-09-12T10:27:02.613Z,23.70
2018-09-12T10:29:37.079Z,23.70
2018-09-12T10:32:12.308Z,23.70
2018-09-12T10:34:46.394Z,23.70
2018-09-12T10:37:20.316Z,23.80
2018-09-12T10:39:54.609Z,23.90
2018-09-12T10:42:28.825Z,23.90
2018-09-12T10:45:03.841Z,24.00
2018-09-12T10:47:38.039Z,24.00
2018-09-12T10:50:12.087Z,24.00
2018-09-12T10:52:46.477Z,24.00
2018-09-12T10:55:20.727Z,24.10
2018-09-12T10:57:54.930Z,24.20
2018-09-12T11:00:29.542Z,24.20
2018-09-12T11:03:03.558Z,24.30
2018-09-12T11:05:37.959Z,24.40
2018-09-12T11:08:12.793Z,24.60
2018-09-12T11:10:47.936Z,24.60
2018-09-12T11:13:21.842Z,24.70
2018-09-12T11:15:55.900Z,24.80
2018-09-12T11:18:30.960Z,25.00
2018-09-12T11:21:04.800Z,25.10
2018-09-12T11:23:38.576Z,25.20
2018-09-12T11:26:13.171Z,25.10
2018-09-12T11:28:47.405Z,25.20
2018-09-12T11:31:21.535Z,25.20
2018-09-12T11:33:55.848Z,25.20
2018-09-12T11:36:30.037Z,25.40
2018-09-12T11:39:06.805Z,25.50
2018-09-12T11:41:41.813Z,25.50
2018-09-12T11:44:15.940Z,25.60
2018-09-12T11:46:49.964Z,25.80
2018-09-12T11:49:24.102Z,25.90
2018-09-12T11:51:58.291Z,25.80
2018-09-12T11:54:32.424Z,25.90
2018-09-12T11:57:06.452Z,26.00
2018-09-12T11:59:40.523Z,26.10
2018-09-12T12:02:14.871Z,26.10
2018-09-12T12:04:49.035Z,26.10
2018-09-12T12:07:23.465Z,26.10
2018-09-12T12:09:59.090Z,26.10
2018-09-12T12:12:33.219Z,26.10
2018-09-12T12:15:07.863Z,26.10
2018-09-12T12:17:42.097Z,26.10
2018-09-12T12:20:16.605Z,26.30
2018-09-12T12:22:50.510Z,26.30
2018-09-12T12:25:25.386Z,26.20
2018-09-12T12:27:59.205Z,26.10
2018-09-12T12:30:33.629Z,26.00
2018-09-12T12:33:09.923Z,25.90
2018-09-12T12:35:44.873Z,25.70
2018-09-12T12:38:18.713Z,25.60
2018-09-12T12:40:52.626Z,25.60
2018-09-12T12:43:27.980Z,25.60
2018-09-12T12:46:02.095Z,25.60
2018-09-12T12:48:37.459Z,25.60
2018-09-12T12:51:11.299Z,25.70
2018-09-12T12:53:46.316Z,25.60
2018-09-12T12:56:20.464Z,25.80
2018-09-12T12:58:54.552Z,26.00
2018-09-12T13:01:28.896Z,26.20
2018-09-12T13:04:02.659Z,26.50
2018-09-12T13:06:36.845Z,26.80
2018-09-12T13:09:11.855Z,27.10
2018-09-12T13:11:46.926Z,27.60
2018-09-12T13:14:21.533Z,27.70
2018-09-12T13:16:55.488Z,27.70
2018-09-12T13:19:29.281Z,27.60
2018-09-12T13:22:03.375Z,27.80
2018-09-12T13:24:38.759Z,27.80
2018-09-12T13:27:12.854Z,27.70
2018-09-12T13:29:47.605Z,27.30
2018-09-12T13:32:21.858Z,27.30
2018-09-12T13:34:56.125Z,26.90
2018-09-12T13:37:31.206Z,26.90
2018-09-12T13:40:05.579Z,27.20
2018-09-12T13:42:39.751Z,27.20
2018-09-12T13:45:13.821Z,27.20
2018-09-12T13:47:48.483Z,26.90
2018-09-12T13:50:22.495Z,26.80
2018-09-12T13:52:56.756Z,26.30
2018-09-12T13:55:30.906Z,25.40
2018-09-12T13:58:05.028Z,24.70
2018-09-12T14:00:39.060Z,24.00
2018-09-12T14:03:13.254Z,23.70
2018-09-12T14:05:48.183Z,23.30
2018-09-12T14:08:24.991Z,23.10
2018-09-12T14:11:00.051Z,22.90
2018-09-12T14:13:34.293Z,22.80
2018-09-12T14:16:08.536Z,22.70
2018-09-12T14:18:42.485Z,22.40
2018-09-12T14:21:17.052Z,22.20
2018-09-12T14:23:52.020Z,21.80
2018-09-12T14:26:26.509Z,21.50
2018-09-12T14:29:01.674Z,21.30
2018-09-12T14:31:36.756Z,21.10
2018-09-12T14:34:11.966Z,20.90
2018-09-12T14:36:46.545Z,20.60
2018-09-12T14:39:20.861Z,20.60
2018-09-12T14:41:54.723Z,20.30
2018-09-12T14:44:28.899Z,20.10
2018-09-12T14:47:03.255Z,19.90
2018-09-12T14:49:37.441Z,19.80
2018-09-12T14:52:12.446Z,19.80
2018-09-12T14:54:47.785Z,19.70
2018-09-12T14:57:22.636Z,19.70
2018-09-12T14:59:57.326Z,19.70
2018-09-12T15:02:31.166Z,19.50
2018-09-12T15:05:05.626Z,19.30
2018-09-12T15:07:39.703Z,19.30
2018-09-12T15:10:14.824Z,19.20
2018-09-12T15:12:48.980Z,19.20
2018-09-12T15:15:24.335Z,19.10
2018-09-12T15:17:58.703Z,19.00
2018-09-12T15:20:33.143Z,18.90
2018-09-12T15:23:07.133Z,18.90
2018-09-12T15:25:41.578Z,18.80
2018-09-12T15:28:16.027Z,18.70
2018-09-12T15:30:50.319Z,18.60
2018-09-12T15:33:24.340Z,18.50
2018-09-12T15:35:58.428Z,18.50
2018-09-12T15:38:33.128Z,18.50
2018-09-12T15:41:07.962Z,18.40
2018-09-12T15:43:42.241Z,18.40
2018-09-12T15:46:16.989Z,18.50
2018-09-12T15:48:51.357Z,18.50
2018-09-12T15:51:25.257Z,18.40
2018-09-12T15:53:59.753Z,18.50
2018-09-12T15:56:34.909Z,18.50
2018-09-12T15:59:10.023Z,18.50
2018-09-12T16:01:44.118Z,18.50
2018-09-12T16:04:18.248Z,18.40
2018-09-12T16:06:53.040Z,18.40
2018-09-12T16:09:28.518Z,18.30
2018-09-12T16:12:04.140Z,18.20
2018-09-12T16:14:39.290Z,18.10
2018-09-12T16:17:13.260Z,18.10
2018-09-12T16:19:47.617Z,18.00
2018-09-12T16:22:21.821Z,18.00
2018-09-12T16:24:56.167Z,17.90
2018-09-12T16:27:30.745Z,17.80
2018-09-12T16:30:05.822Z,17.80
2018-09-12T16:32:40.710Z,17.70
2018-09-12T16:35:14.959Z,17.70
2018-09-12T16:37:49.345Z,17.70
2018-09-12T16:40:23.418Z,17.70
2018-09-12T16:42:57.765Z,17.70
2018-09-12T16:45:32.423Z,17.70
2018-09-12T16:48:06.593Z,17.60
2018-09-12T16:50:41.052Z,17.60
2018-09-12T16:53:15.368Z,17.40
2018-09-12T16:55:50.109Z,17.40
2018-09-12T16:58:24.319Z,17.30
2018-09-12T17:00:59.151Z,17.20
2018-09-12T17:03:33.610Z,17.20
2018-09-12T17:06:09.070Z,17.10
2018-09-12T17:08:44.308Z,17.10
2018-09-12T17:11:18.474Z,17.10
2018-09-12T17:13:52.553Z,17.10
2018-09-12T17:18:47.774Z,17.00
2018-09-12T17:21:21.889Z,17.00
2018-09-12T17:23:55.920Z,17.00
2018-09-12T17:26:31.107Z,17.00
2018-09-12T17:29:05.499Z,17.00
2018-09-12T17:31:39.709Z,16.90
2018-09-12T17:34:13.998Z,16.90
2018-09-12T17:36:48.544Z,16.90
2018-09-12T17:39:22.657Z,16.80
2018-09-12T17:41:57.680Z,16.80
2018-09-12T17:44:31.654Z,16.80
2018-09-12T17:47:05.881Z,16.80
2018-09-12T17:49:40.025Z,16.80
2018-09-12T17:52:15.101Z,16.90
2018-09-12T17:54:49.226Z,16.80
2018-09-12T17:57:23.534Z,16.80
2018-09-12T18:00:04.455Z,16.70
2018-09-12T18:02:38.970Z,16.70
2018-09-12T18:05:12.940Z,16.60
2018-09-12T18:07:48.275Z,16.60
2018-09-12T18:10:22.555Z,16.60
2018-09-12T18:12:56.654Z,16.60
2018-09-12T18:15:31.535Z,16.50
2018-09-12T18:18:06.985Z,16.50
2018-09-12T18:20:44.649Z,16.50
2018-09-12T18:23:18.963Z,16.50
2018-09-12T18:25:53.295Z,16.50
2018-09-12T18:28:28.370Z,16.40
2018-09-12T18:31:02.634Z,16.40
2018-09-12T18:33:37.161Z,16.30
2018-09-12T18:36:11.495Z,16.30
2018-09-12T18:38:46.338Z,16.40
2018-09-12T18:41:20.996Z,16.30
2018-09-12T18:43:55.864Z,16.30
2018-09-12T18:46:30.530Z,16.30
2018-09-12T18:49:04.839Z,16.20
2018-09-12T18:51:39.626Z,16.30
2018-09-12T18:54:13.972Z,16.30
2018-09-12T18:56:48.955Z,16.30
2018-09-12T18:59:23.293Z,16.40
2018-09-12T19:01:57.415Z,16.40
2018-09-12T19:04:31.500Z,16.30
2018-09-12T19:07:06.233Z,16.40
2018-09-12T19:09:41.009Z,16.30
2018-09-12T19:12:15.514Z,16.30
2018-09-12T19:14:49.641Z,16.20
2018-09-12T19:17:24.304Z,16.20
2018-09-12T19:19:59.308Z,16.10
2018-09-12T19:22:33.864Z,16.20
2018-09-12T19:25:08.576Z,16.20
2018-09-12T19:27:43.001Z,16.20
2018-09-12T19:30:18.022Z,16.20
2018-09-12T19:32:52.300Z,16.10
2018-09-12T19:35:27.245Z,16.00
2018-09-12T19:38:01.375Z,16.00
2018-09-12T19:40:36.591Z,16.00
2018-09-12T19:43:11.316Z,16.00
2018-09-12T19:45:45.671Z,16.00
2018-09-12T19:48:19.965Z,16.00
2018-09-12T19:50:54.315Z,16.00
2018-09-12T19:53:28.739Z,16.00
2018-09-12T19:56:03.069Z,15.90
2018-09-12T19:58:37.910Z,15.90
2018-09-12T20:01:12.245Z,15.90
2018-09-12T20:03:47.486Z,16.00
2018-09-12T20:06:22.307Z,16.10
2018-09-12T20:08:56.376Z,16.00
2018-09-12T20:11:30.622Z,16.00
2018-09-12T20:14:05.315Z,16.10
2018-09-12T20:16:40.108Z,16.20
2018-09-12T20:19:15.354Z,16.20
2018-09-12T20:21:50.167Z,16.10
2018-09-12T20:24:24.166Z,16.00
2018-09-12T20:26:58.602Z,16.00
2018-09-12T20:29:32.970Z,16.00
2018-09-12T20:32:07.208Z,15.90
2018-09-12T20:34:42.438Z,15.90
2018-09-12T20:37:17.033Z,15.90
2018-09-12T20:39:51.047Z,15.90
2018-09-12T20:42:26.256Z,15.90
2018-09-12T20:45:01.251Z,15.90
2018-09-12T20:47:36.022Z,15.90
2018-09-12T20:50:10.766Z,15.90
2018-09-12T20:52:45.966Z,15.80
2018-09-12T20:55:20.646Z,15.80
2018-09-12T20:57:54.664Z,15.80
2018-09-12T21:00:28.733Z,15.80
2018-09-12T21:03:03.220Z,15.70
2018-09-12T21:05:37.634Z,15.70
2018-09-12T21:08:11.620Z,15.70
2018-09-12T21:10:45.797Z,15.80
2018-09-12T21:13:20.258Z,15.70
2018-09-12T21:15:55.566Z,15.80
2018-09-12T21:18:29.921Z,15.80
2018-09-12T21:21:04.764Z,15.70
2018-09-12T21:23:38.978Z,15.70
2018-09-12T21:26:13.175Z,15.70
2018-09-12T21:28:47.428Z,15.70
2018-09-12T21:31:21.442Z,15.70
2018-09-12T21:33:55.538Z,15.60
2018-09-12T21:36:37.300Z,15.60
2018-09-12T21:39:11.389Z,15.70
2018-09-12T21:41:45.300Z,15.70
2018-09-12T21:44:19.554Z,15.70
2018-09-12T21:46:53.849Z,15.60
2018-09-12T21:49:28.296Z,15.60
2018-09-12T21:52:02.463Z,15.60
2018-09-12T21:54:37.374Z,15.60
2018-09-12T21:57:11.598Z,15.60
2018-09-12T21:59:46.857Z,15.60
2018-09-12T22:02:21.690Z,15.60
2018-09-12T22:04:56.479Z,15.70
2018-09-12T22:07:31.413Z,15.70
2018-09-12T22:10:05.418Z,15.70
2018-09-12T22:12:39.479Z,15.80
2018-09-12T22:15:13.819Z,15.80
2018-09-12T22:17:47.993Z,15.90
2018-09-12T22:20:22.836Z,15.90
2018-09-12T22:22:56.807Z,15.90
2018-09-12T22:25:31.028Z,15.90
2018-09-12T22:28:05.603Z,16.00
2018-09-12T22:30:41.075Z,16.00
2018-09-12T22:33:15.262Z,16.00
2018-09-12T22:35:49.232Z,16.00
2018-09-12T22:38:23.684Z,16.00
2018-09-12T22:40:57.702Z,16.00
2018-09-12T22:43:31.813Z,16.00
2018-09-12T22:46:06.224Z,15.90
2018-09-12T22:48:41.944Z,15.90
2018-09-12T22:51:16.658Z,15.80
2018-09-12T22:53:50.930Z,15.60
2018-09-12T22:56:25.628Z,15.50
2018-09-12T22:58:59.545Z,15.30
2018-09-12T23:01:34.172Z,15.10
2018-09-12T23:04:09.443Z,15.00
2018-09-12T23:06:43.582Z,14.90
2018-09-12T23:09:17.576Z,14.90
2018-09-12T23:11:58.407Z,14.90
2018-09-12T23:14:33.318Z,14.90
2018-09-12T23:17:07.747Z,14.80
2018-09-12T23:19:41.598Z,14.80
2018-09-12T23:22:15.806Z,14.80
2018-09-12T23:24:50.047Z,14.70
2018-09-12T23:27:24.603Z,14.80
2018-09-12T23:29:59.027Z,14.70
2018-09-12T23:32:33.133Z,14.70
2018-09-12T23:35:07.135Z,14.70
2018-09-12T23:37:41.608Z,14.60
2018-09-12T23:40:16.441Z,14.60
2018-09-12T23:42:50.489Z,14.50
2018-09-12T23:45:24.800Z,14.50
2018-09-12T23:48:00.283Z,14.50
2018-09-12T23:50:34.366Z,14.50
2018-09-12T23:53:08.712Z,14.60
2018-09-12T23:55:42.793Z,14.50
2018-09-12T23:58:17.019Z,14.50
